Etusivu
METAR-TAF:

METAR-TAF

Lentoasemat :

Gatesville Municipal Airport

Gatesville, Texas, Yhdysvallat

Leveyspiiri: 31-25-16N, Pituuspiiri: 097-47-49W, korkeus merenpinnasta: 276 m

Tämänhetkinen sää

Tämä raportti tehtiin 31 minuuttia sitten, kello 14.15 UTC
Tuuli 5 kn etelästä puuskistuen 13 kn:hen
Lämpötila 22°C
Kosteus 94%
Ilmanpaine 1012 hPa
Näkyvyys: 16.1 km
Hajonneita pilviä 4100 ft:n korkeudessa
Hajonneita pilviä 5000 ft:n korkeudessa
Hajonneita pilviä 10000 ft:n korkeudessa

METAR: KGOP 161415Z AUTO 18005G13KT 10SM BKN041 BKN050 BKN100 22/21 A2987 RMK AO2

Aika: 09:46 (14:46 UTC)


TAF: puuttuu

Säähavainnot ja -ennusteet yli 4000 lentoasemalta (METAR- ja TAF-raportit).

Käytössä olevat sääasemat on merkitty karttaan keltaisilla ja punaisilla pisteillä.

Aseta hiiri pisteen päälle nähdäksesi sääaseman nimen.

Klikkaa sitten nähdäksesi säähavainnot ja -ennusteet.

Kartan vaihtaminen: klikkaa mustalla rastilla varustettuja vihreitä pisteitä, niin voit zoomata sisään; viivalla varustettua vihreää pistettä, niin voit zoomata ulos tai vihreitä nuolia, niin pääset viereisille kartoille.


METAR-TAF: